createdAt,value
2023-02-12T00:00:13.267Z,49.7
2023-02-12T00:05:51.133Z,49.3
2023-02-12T00:11:27.304Z,49.4
2023-02-12T00:17:04.501Z,49.7
2023-02-12T00:22:42.106Z,49.7
2023-02-12T00:28:25.117Z,49.7
2023-02-12T00:34:00.757Z,49.9
2023-02-12T00:39:36.091Z,49.7
2023-02-12T00:45:12.383Z,49.8
2023-02-12T00:50:50.810Z,49.9
2023-02-12T00:56:27.316Z,50.1
2023-02-12T01:02:03.010Z,50.6
2023-02-12T01:08:17.536Z,50.4
2023-02-12T01:13:52.717Z,49.7
2023-02-12T01:19:28.448Z,49.5
2023-02-12T01:25:04.548Z,49.3
2023-02-12T01:30:44.693Z,49.3
2023-02-12T01:36:20.469Z,49.5
2023-02-12T01:41:55.585Z,50.3
2023-02-12T01:47:33.994Z,50
2023-02-12T01:53:09.607Z,50.3
2023-02-12T01:59:15.521Z,50.5
2023-02-12T02:04:58.872Z,50.6
2023-02-12T02:10:54.934Z,50.8
2023-02-12T02:16:33.607Z,51
2023-02-12T02:23:03.058Z,50.3
2023-02-12T02:28:38.861Z,49.9
2023-02-12T02:34:37.774Z,49.4
2023-02-12T02:40:18.331Z,49.5
2023-02-12T02:47:28.008Z,49.6
2023-02-12T02:53:28.092Z,49.2
2023-02-12T02:59:48.487Z,48.7
2023-02-12T03:05:26.167Z,49.1
2023-02-12T03:11:03.382Z,49.3
2023-02-12T03:16:49.687Z,49
2023-02-12T03:22:28.792Z,50.3
2023-02-12T03:28:13.165Z,49.9
2023-02-12T03:33:49.105Z,49.8
2023-02-12T03:40:09.114Z,49.4
2023-02-12T03:45:44.197Z,49.2
2023-02-12T03:51:30.018Z,49.8
2023-02-12T03:57:23.402Z,49.9
2023-02-12T04:02:59.729Z,50
2023-02-12T04:08:36.149Z,49.9
2023-02-12T04:14:14.933Z,49.4
2023-02-12T04:19:55.432Z,49.1
2023-02-12T04:25:32.024Z,48.4
2023-02-12T04:31:07.282Z,48.4
2023-02-12T04:36:44.514Z,48.9
2023-02-12T04:42:33.789Z,48.7
2023-02-12T04:48:09.800Z,48.3
2023-02-12T04:53:45.071Z,48.9
2023-02-12T05:00:05.457Z,49.1
2023-02-12T05:06:00.625Z,49
2023-02-12T05:11:35.486Z,48.5
2023-02-12T05:17:28.300Z,49.1
2023-02-12T05:23:18.409Z,49.5
2023-02-12T05:28:53.692Z,49.8
2023-02-12T05:34:30.974Z,50
2023-02-12T05:40:07.657Z,49.7
2023-02-12T05:45:42.654Z,49.7
2023-02-12T05:51:44.667Z,50.7
2023-02-12T05:57:41.408Z,50.8
2023-02-12T06:03:59.076Z,51.8
2023-02-12T06:10:26.766Z,51.4
2023-02-12T06:16:27.346Z,50
2023-02-12T06:22:29.843Z,49.7
2023-02-12T06:28:16.975Z,49.6
2023-02-12T06:34:09.762Z,49.2
2023-02-12T06:39:48.463Z,49.3
2023-02-12T06:45:39.922Z,49
2023-02-12T06:51:16.084Z,49.7
2023-02-12T06:56:53.642Z,50.3
2023-02-12T07:02:32.161Z,50.7
2023-02-12T07:08:07.311Z,50.3
2023-02-12T07:13:47.613Z,50.2
2023-02-12T07:19:33.830Z,49.4
2023-02-12T07:25:09.391Z,48.7
2023-02-12T07:30:53.248Z,48.3
2023-02-12T07:36:29.250Z,48.5
2023-02-12T07:42:05.886Z,48.8
2023-02-12T07:47:45.094Z,49.8
2023-02-12T07:53:22.434Z,49.4
2023-02-12T07:59:21.201Z,49.5
2023-02-12T08:05:00.175Z,49.6
2023-02-12T08:10:39.520Z,49.7
2023-02-12T08:16:16.258Z,44.8
2023-02-12T08:21:52.426Z,52.2
2023-02-12T08:27:27.866Z,52.1
2023-02-12T08:33:06.604Z,54.5
2023-02-12T08:38:41.869Z,55.3
2023-02-12T08:44:17.269Z,56.9
2023-02-12T08:49:52.861Z,56.1
2023-02-12T08:55:28.302Z,48.3
2023-02-12T09:01:04.587Z,54.9
2023-02-12T09:06:40.361Z,56.1
2023-02-12T09:12:16.329Z,56.9
2023-02-12T09:17:51.775Z,58.5
2023-02-12T09:23:30.406Z,55.1
2023-02-12T09:29:05.904Z,52.7
2023-02-12T09:34:41.665Z,52.4
2023-02-12T09:40:17.263Z,52.3
2023-02-12T09:45:52.352Z,51.7
2023-02-12T09:51:29.801Z,49.2
2023-02-12T09:57:13.057Z,45.4
2023-02-12T10:02:48.617Z,44.7
2023-02-12T10:08:25.431Z,43.7
2023-02-12T10:14:01.447Z,43.7
2023-02-12T10:19:36.805Z,41.1
2023-02-12T10:25:12.248Z,40.3
2023-02-12T10:30:48.194Z,40.1
2023-02-12T10:36:43.057Z,40.8
2023-02-12T10:42:18.599Z,40.9
2023-02-12T10:47:54.227Z,40
2023-02-12T10:53:35.538Z,40.2
2023-02-12T10:59:10.778Z,39.5
2023-02-12T11:04:46.061Z,35.2
2023-02-12T11:10:22.210Z,35.9
2023-02-12T11:15:59.718Z,37.6
2023-02-12T11:21:37.743Z,36
2023-02-12T11:27:21.111Z,31.7
2023-02-12T11:33:17.071Z,31.6
2023-02-12T11:38:53.249Z,34.5
2023-02-12T11:44:39.886Z,35.2
2023-02-12T11:50:17.629Z,34.4
2023-02-12T11:56:32.645Z,31.7
2023-02-12T12:02:08.005Z,33.8
2023-02-12T12:07:43.864Z,31.7
2023-02-12T12:13:40.358Z,31.7
2023-02-12T12:19:15.572Z,30.2
2023-02-12T12:24:50.779Z,29.1
2023-02-12T12:30:26.337Z,32.2
2023-02-12T12:36:01.745Z,30.2
2023-02-12T12:41:37.145Z,28.5
2023-02-12T12:47:12.666Z,31.6
2023-02-12T12:52:47.745Z,30.4
2023-02-12T12:58:39.849Z,32.4
2023-02-12T13:04:14.890Z,27.4
2023-02-12T13:09:59.052Z,27.2
2023-02-12T13:15:55.664Z,25.5
2023-02-12T13:21:33.399Z,27.3
2023-02-12T13:27:18.541Z,23.8
2023-02-12T13:32:55.037Z,23.9
2023-02-12T13:38:33.223Z,24
2023-02-12T13:44:14.120Z,24.2
2023-02-12T13:49:56.389Z,25.4
2023-02-12T13:55:31.557Z,23.7
2023-02-12T14:01:07.135Z,25.3
2023-02-12T14:06:43.426Z,23.2
2023-02-12T14:12:24.763Z,20.4
2023-02-12T14:18:21.401Z,18.3
2023-02-12T14:23:57.269Z,17.1
2023-02-12T14:30:06.327Z,16.5
2023-02-12T14:36:44.633Z,16.8
2023-02-12T14:42:20.057Z,16.3
2023-02-12T14:48:19.969Z,14.6
2023-02-12T14:53:53.203Z,13.8
2023-02-12T14:59:29.157Z,13.9
2023-02-12T15:05:07.977Z,14.1
2023-02-12T15:10:52.276Z,13.3
2023-02-12T15:16:33.991Z,14.3
2023-02-12T15:23:42.705Z,14.2
2023-02-12T15:29:18.232Z,16.5
2023-02-12T15:35:03.863Z,19
2023-02-12T15:40:38.760Z,20.7
2023-02-12T15:46:27.161Z,23.9
2023-02-12T15:52:02.766Z,24.3
2023-02-12T15:57:44.732Z,24.1
2023-02-12T16:03:25.103Z,25.1
2023-02-12T16:09:06.106Z,27.1
2023-02-12T16:14:44.964Z,25.5
2023-02-12T16:20:19.700Z,26.7
2023-02-12T16:25:58.737Z,28.5
2023-02-12T16:31:34.879Z,28.9
2023-02-12T16:37:10.751Z,29.8
2023-02-12T16:42:48.677Z,32.2
2023-02-12T16:49:31.017Z,33.4
2023-02-12T16:55:03.539Z,34.1
2023-02-12T17:00:39.345Z,35.7
2023-02-12T17:06:29.186Z,35.9
2023-02-12T17:12:06.880Z,36.1
2023-02-12T17:18:14.903Z,36.4
2023-02-12T17:23:53.508Z,36.9
2023-02-12T17:29:28.262Z,36.4
2023-02-12T17:35:03.154Z,36.5
2023-02-12T17:40:44.624Z,35.8
2023-02-12T17:46:53.940Z,35.6
2023-02-12T17:52:26.973Z,36.1
2023-02-12T17:58:04.801Z,36.5
2023-02-12T18:03:39.813Z,35
2023-02-12T18:09:20.173Z,37.1
2023-02-12T18:15:01.371Z,36.6
2023-02-12T18:20:37.130Z,38.8
2023-02-12T18:26:35.748Z,36.6
2023-02-12T18:32:11.770Z,37.7
2023-02-12T18:37:46.870Z,39.1
2023-02-12T18:43:24.832Z,39.7
2023-02-12T18:49:02.251Z,41.2
2023-02-12T18:54:37.045Z,41.4
2023-02-12T19:00:11.953Z,42.3
2023-02-12T19:05:47.398Z,43.2
2023-02-12T19:11:24.632Z,43.9
2023-02-12T19:17:00.238Z,44.5
2023-02-12T19:22:35.158Z,45.8
2023-02-12T19:28:21.002Z,43.9
2023-02-12T19:33:57.032Z,43.8
2023-02-12T19:39:33.140Z,44.3
2023-02-12T19:45:08.458Z,42.1
2023-02-12T19:50:47.141Z,43.8
2023-02-12T19:56:22.590Z,45.2
2023-02-12T20:01:58.256Z,42.7
2023-02-12T20:07:34.999Z,41
2023-02-12T20:13:15.892Z,40.3
2023-02-12T20:19:00.668Z,39.9
2023-02-12T20:24:45.631Z,40.5
2023-02-12T20:30:31.238Z,41.4
2023-02-12T20:36:17.180Z,42
2023-02-12T20:42:02.452Z,42.3
2023-02-12T20:47:43.135Z,42
2023-02-12T20:53:28.770Z,42.2
2023-02-12T20:59:10.561Z,43.2
2023-02-12T21:04:53.193Z,43.5
2023-02-12T21:10:39.240Z,43.1
2023-02-12T21:16:25.951Z,43.3
2023-02-12T21:22:11.544Z,43
2023-02-12T21:27:56.248Z,42.7
2023-02-12T21:33:41.835Z,42.2
2023-02-12T21:39:18.922Z,42
2023-02-12T21:44:56.115Z,41.9
2023-02-12T21:50:40.308Z,42.5
2023-02-12T21:56:15.241Z,43.6
2023-02-12T22:02:02.180Z,42.9
2023-02-12T22:07:41.816Z,43
2023-02-12T22:13:17.621Z,43.6
2023-02-12T22:19:27.212Z,43.3
2023-02-12T22:25:02.272Z,43.5
2023-02-12T22:31:23.349Z,43.2
2023-02-12T22:36:59.997Z,43.7
2023-02-12T22:42:36.237Z,44.8
2023-02-12T22:48:13.713Z,44.4
2023-02-12T22:54:17.565Z,43.7
2023-02-12T22:59:54.034Z,43.5
2023-02-12T23:05:50.011Z,43.5
2023-02-12T23:11:26.108Z,43.3
2023-02-12T23:17:02.542Z,44.1
2023-02-12T23:22:37.695Z,44.3
2023-02-12T23:28:13.206Z,44.9
2023-02-12T23:33:49.210Z,44.3
2023-02-12T23:39:45.556Z,44
2023-02-12T23:45:40.764Z,43.8
2023-02-12T23:52:00.565Z,44.1
2023-02-12T23:57:43.573Z,44.4
